sensor_id;sensor_type;location;lat;lon;timestamp;temperature;humidity
27306;DHT22;14792;50.886;6.468;2022-08-11T00:00:07;21.40;93.80
27306;DHT22;14792;50.886;6.468;2022-08-11T00:03:09;21.30;93.80
27306;DHT22;14792;50.886;6.468;2022-08-11T00:06:09;21.30;94.00
27306;DHT22;14792;50.886;6.468;2022-08-11T00:09:12;21.20;94.10
27306;DHT22;14792;50.886;6.468;2022-08-11T00:12:15;21.20;94.50
27306;DHT22;14792;50.886;6.468;2022-08-11T00:15:16;21.00;94.70
27306;DHT22;14792;50.886;6.468;2022-08-11T00:18:18;20.70;95.60
27306;DHT22;14792;50.886;6.468;2022-08-11T00:21:20;20.70;95.80
27306;DHT22;14792;50.886;6.468;2022-08-11T00:24:21;20.60;95.90
27306;DHT22;14792;50.886;6.468;2022-08-11T00:27:32;20.60;96.00
27306;DHT22;14792;50.886;6.468;2022-08-11T00:30:39;20.60;95.80
27306;DHT22;14792;50.886;6.468;2022-08-11T00:33:43;20.70;95.90
27306;DHT22;14792;50.886;6.468;2022-08-11T00:36:49;20.70;96.00
27306;DHT22;14792;50.886;6.468;2022-08-11T00:39:50;20.60;96.00
27306;DHT22;14792;50.886;6.468;2022-08-11T00:42:53;20.60;96.20
27306;DHT22;14792;50.886;6.468;2022-08-11T00:46:21;20.60;96.30
27306;DHT22;14792;50.886;6.468;2022-08-11T00:59:23;20.60;96.90
27306;DHT22;14792;50.886;6.468;2022-08-11T01:02:46;20.60;96.60
27306;DHT22;14792;50.886;6.468;2022-08-11T01:16:00;20.40;97.00
27306;DHT22;14792;50.886;6.468;2022-08-11T01:46:21;19.80;98.70
27306;DHT22;14792;50.886;6.468;2022-08-11T01:59:36;19.20;99.90
27306;DHT22;14792;50.886;6.468;2022-08-11T02:02:51;19.00;99.90
27306;DHT22;14792;50.886;6.468;2022-08-11T02:06:00;18.90;99.90
27306;DHT22;14792;50.886;6.468;2022-08-11T02:09:19;18.70;99.90
27306;DHT22;14792;50.886;6.468;2022-08-11T02:15:28;18.40;99.90
27306;DHT22;14792;50.886;6.468;2022-08-11T02:18:36;18.40;99.90
27306;DHT22;14792;50.886;6.468;2022-08-11T02:21:55;18.30;99.90
27306;DHT22;14792;50.886;6.468;2022-08-11T02:25:17;18.20;99.90
27306;DHT22;14792;50.886;6.468;2022-08-11T02:28:21;18.10;99.90
27306;DHT22;14792;50.886;6.468;2022-08-11T02:31:28;18.00;99.90
27306;DHT22;14792;50.886;6.468;2022-08-11T02:34:48;17.90;99.90
27306;DHT22;14792;50.886;6.468;2022-08-11T02:41:32;17.70;99.90
27306;DHT22;14792;50.886;6.468;2022-08-11T03:04:21;16.60;99.90
27306;DHT22;14792;50.886;6.468;2022-08-11T03:07:27;16.50;99.90
27306;DHT22;14792;50.886;6.468;2022-08-11T03:23:50;16.40;99.90
27306;DHT22;14792;50.886;6.468;2022-08-11T03:33:18;16.50;99.90
27306;DHT22;14792;50.886;6.468;2022-08-11T03:43:30;16.60;99.90
27306;DHT22;14792;50.886;6.468;2022-08-11T03:50:01;16.50;99.90
27306;DHT22;14792;50.886;6.468;2022-08-11T04:10:36;16.60;99.90
27306;DHT22;14792;50.886;6.468;2022-08-11T04:17:48;16.50;99.90
27306;DHT22;14792;50.886;6.468;2022-08-11T04:24:14;16.50;99.90
27306;DHT22;14792;50.886;6.468;2022-08-11T04:41:24;17.30;99.90
27306;DHT22;14792;50.886;6.468;2022-08-11T04:44:31;17.40;99.90
27306;DHT22;14792;50.886;6.468;2022-08-11T04:47:50;17.40;99.90
27306;DHT22;14792;50.886;6.468;2022-08-11T05:08:59;17.90;99.90
27306;DHT22;14792;50.886;6.468;2022-08-11T05:15:18;17.90;99.90
27306;DHT22;14792;50.886;6.468;2022-08-11T05:18:39;18.00;99.90
27306;DHT22;14792;50.886;6.468;2022-08-11T05:21:56;18.10;99.90
27306;DHT22;14792;50.886;6.468;2022-08-11T05:25:24;18.20;99.90
27306;DHT22;14792;50.886;6.468;2022-08-11T05:29:02;18.20;99.90
27306;DHT22;14792;50.886;6.468;2022-08-11T05:32:00;18.20;99.90
27306;DHT22;14792;50.886;6.468;2022-08-11T05:35:40;18.30;99.90
27306;DHT22;14792;50.886;6.468;2022-08-11T05:38:39;18.40;99.90
27306;DHT22;14792;50.886;6.468;2022-08-11T05:41:59;18.40;99.90
27306;DHT22;14792;50.886;6.468;2022-08-11T05:45:18;18.60;99.90
27306;DHT22;14792;50.886;6.468;2022-08-11T05:48:38;18.60;99.90
27306;DHT22;14792;50.886;6.468;2022-08-11T05:51:57;18.70;99.90
27306;DHT22;14792;50.886;6.468;2022-08-11T05:55:17;18.80;99.90
27306;DHT22;14792;50.886;6.468;2022-08-11T05:58:40;18.90;99.90
27306;DHT22;14792;50.886;6.468;2022-08-11T06:01:41;18.90;99.90
27306;DHT22;14792;50.886;6.468;2022-08-11T06:04:43;19.00;99.90
27306;DHT22;14792;50.886;6.468;2022-08-11T06:07:44;19.00;99.90
27306;DHT22;14792;50.886;6.468;2022-08-11T06:10:46;19.10;99.90
27306;DHT22;14792;50.886;6.468;2022-08-11T06:13:47;19.10;99.90
27306;DHT22;14792;50.886;6.468;2022-08-11T06:16:49;19.20;99.90
27306;DHT22;14792;50.886;6.468;2022-08-11T06:19:51;19.30;99.90
27306;DHT22;14792;50.886;6.468;2022-08-11T06:22:56;19.40;99.90
27306;DHT22;14792;50.886;6.468;2022-08-11T06:25:56;19.50;99.90
27306;DHT22;14792;50.886;6.468;2022-08-11T06:28:58;19.60;99.90
27306;DHT22;14792;50.886;6.468;2022-08-11T06:32:00;19.70;99.90
27306;DHT22;14792;50.886;6.468;2022-08-11T06:35:30;19.80;99.90
27306;DHT22;14792;50.886;6.468;2022-08-11T06:38:38;19.90;99.90
27306;DHT22;14792;50.886;6.468;2022-08-11T06:41:51;20.00;99.90
27306;DHT22;14792;50.886;6.468;2022-08-11T06:48:17;20.30;99.90
27306;DHT22;14792;50.886;6.468;2022-08-11T06:51:17;20.50;99.90
27306;DHT22;14792;50.886;6.468;2022-08-11T06:54:19;20.60;99.90
27306;DHT22;14792;50.886;6.468;2022-08-11T06:57:21;20.90;99.90
27306;DHT22;14792;50.886;6.468;2022-08-11T07:00:40;21.00;99.90
27306;DHT22;14792;50.886;6.468;2022-08-11T07:03:48;21.30;99.90
27306;DHT22;14792;50.886;6.468;2022-08-11T07:07:00;21.50;99.90
27306;DHT22;14792;50.886;6.468;2022-08-11T07:10:06;21.50;99.90
27306;DHT22;14792;50.886;6.468;2022-08-11T07:13:22;21.80;99.90
27306;DHT22;14792;50.886;6.468;2022-08-11T07:16:41;22.00;99.90
27306;DHT22;14792;50.886;6.468;2022-08-11T07:19:44;22.00;99.90
27306;DHT22;14792;50.886;6.468;2022-08-11T07:23:02;22.20;99.90
27306;DHT22;14792;50.886;6.468;2022-08-11T07:26:23;22.70;99.90
27306;DHT22;14792;50.886;6.468;2022-08-11T07:29:41;22.70;99.90
27306;DHT22;14792;50.886;6.468;2022-08-11T07:32:50;22.90;99.90
27306;DHT22;14792;50.886;6.468;2022-08-11T07:35:51;23.30;99.90
27306;DHT22;14792;50.886;6.468;2022-08-11T07:38:52;23.40;99.90
27306;DHT22;14792;50.886;6.468;2022-08-11T07:41:54;24.00;99.90
27306;DHT22;14792;50.886;6.468;2022-08-11T07:44:55;24.50;99.90
27306;DHT22;14792;50.886;6.468;2022-08-11T07:48:15;24.60;99.90
27306;DHT22;14792;50.886;6.468;2022-08-11T07:51:34;24.80;99.90
27306;DHT22;14792;50.886;6.468;2022-08-11T07:55:18;24.60;99.10
27306;DHT22;14792;50.886;6.468;2022-08-11T07:57:58;25.10;99.20
27306;DHT22;14792;50.886;6.468;2022-08-11T08:01:22;25.30;98.00
27306;DHT22;14792;50.886;6.468;2022-08-11T08:04:40;25.70;97.90
27306;DHT22;14792;50.886;6.468;2022-08-11T08:08:00;25.80;96.20
27306;DHT22;14792;50.886;6.468;2022-08-11T08:11:20;26.10;96.50
27306;DHT22;14792;50.886;6.468;2022-08-11T08:14:39;26.10;95.90
27306;DHT22;14792;50.886;6.468;2022-08-11T08:17:59;26.60;95.30
27306;DHT22;14792;50.886;6.468;2022-08-11T08:21:02;26.80;93.80
27306;DHT22;14792;50.886;6.468;2022-08-11T08:24:02;26.80;94.30
27306;DHT22;14792;50.886;6.468;2022-08-11T08:27:03;26.50;93.00
27306;DHT22;14792;50.886;6.468;2022-08-11T08:30:05;26.80;94.60
27306;DHT22;14792;50.886;6.468;2022-08-11T08:33:25;26.90;92.30
27306;DHT22;14792;50.886;6.468;2022-08-11T08:36:26;26.80;92.50
27306;DHT22;14792;50.886;6.468;2022-08-11T08:39:28;27.00;92.80
27306;DHT22;14792;50.886;6.468;2022-08-11T08:42:30;27.50;91.80
27306;DHT22;14792;50.886;6.468;2022-08-11T08:45:33;27.50;91.20
27306;DHT22;14792;50.886;6.468;2022-08-11T08:48:32;27.80;90.60
27306;DHT22;14792;50.886;6.468;2022-08-11T08:51:35;27.80;90.20
27306;DHT22;14792;50.886;6.468;2022-08-11T08:54:36;28.10;90.50
27306;DHT22;14792;50.886;6.468;2022-08-11T08:57:38;28.10;90.00
27306;DHT22;14792;50.886;6.468;2022-08-11T09:00:40;28.50;89.00
27306;DHT22;14792;50.886;6.468;2022-08-11T09:03:40;28.80;88.00
27306;DHT22;14792;50.886;6.468;2022-08-11T09:06:42;28.50;87.50
27306;DHT22;14792;50.886;6.468;2022-08-11T09:09:46;28.60;85.50
27306;DHT22;14792;50.886;6.468;2022-08-11T09:12:45;28.90;85.90
27306;DHT22;14792;50.886;6.468;2022-08-11T09:15:47;29.10;83.70
27306;DHT22;14792;50.886;6.468;2022-08-11T09:18:49;29.20;83.60
27306;DHT22;14792;50.886;6.468;2022-08-11T09:21:50;29.10;81.70
27306;DHT22;14792;50.886;6.468;2022-08-11T09:24:52;29.30;82.80
27306;DHT22;14792;50.886;6.468;2022-08-11T09:28:12;29.10;81.90
27306;DHT22;14792;50.886;6.468;2022-08-11T09:31:13;29.00;82.30
27306;DHT22;14792;50.886;6.468;2022-08-11T09:34:15;29.40;80.30
27306;DHT22;14792;50.886;6.468;2022-08-11T09:37:16;29.60;78.60
27306;DHT22;14792;50.886;6.468;2022-08-11T09:40:36;29.90;80.40
27306;DHT22;14792;50.886;6.468;2022-08-11T09:43:44;29.80;77.30
27306;DHT22;14792;50.886;6.468;2022-08-11T09:47:03;30.10;80.10
27306;DHT22;14792;50.886;6.468;2022-08-11T09:50:05;29.50;77.50
27306;DHT22;14792;50.886;6.468;2022-08-11T09:53:06;29.70;78.40
27306;DHT22;14792;50.886;6.468;2022-08-11T09:56:12;29.80;74.60
27306;DHT22;14792;50.886;6.468;2022-08-11T09:59:30;29.90;75.50
27306;DHT22;14792;50.886;6.468;2022-08-11T10:02:31;29.40;71.00
27306;DHT22;14792;50.886;6.468;2022-08-11T10:05:33;29.40;69.40
27306;DHT22;14792;50.886;6.468;2022-08-11T10:08:52;29.70;73.70
27306;DHT22;14792;50.886;6.468;2022-08-11T10:11:56;29.80;74.40
27306;DHT22;14792;50.886;6.468;2022-08-11T10:14:56;30.00;73.50
27306;DHT22;14792;50.886;6.468;2022-08-11T10:18:19;29.90;71.60
27306;DHT22;14792;50.886;6.468;2022-08-11T10:21:41;29.80;72.40
27306;DHT22;14792;50.886;6.468;2022-08-11T10:24:42;29.90;72.50
27306;DHT22;14792;50.886;6.468;2022-08-11T10:28:03;30.00;73.10
27306;DHT22;14792;50.886;6.468;2022-08-11T10:31:03;30.00;71.00
27306;DHT22;14792;50.886;6.468;2022-08-11T10:34:23;29.50;68.50
27306;DHT22;14792;50.886;6.468;2022-08-11T10:37:24;29.50;69.30
27306;DHT22;14792;50.886;6.468;2022-08-11T10:40:26;29.50;67.30
27306;DHT22;14792;50.886;6.468;2022-08-11T10:43:27;29.50;69.30
27306;DHT22;14792;50.886;6.468;2022-08-11T10:46:29;29.60;66.80
27306;DHT22;14792;50.886;6.468;2022-08-11T10:49:48;29.40;67.80
27306;DHT22;14792;50.886;6.468;2022-08-11T10:52:50;29.30;68.10
27306;DHT22;14792;50.886;6.468;2022-08-11T10:56:09;29.40;68.30
27306;DHT22;14792;50.886;6.468;2022-08-11T10:59:28;29.60;66.90
27306;DHT22;14792;50.886;6.468;2022-08-11T11:02:30;29.60;66.50
27306;DHT22;14792;50.886;6.468;2022-08-11T11:05:31;29.70;66.30
27306;DHT22;14792;50.886;6.468;2022-08-11T11:08:34;29.60;66.10
27306;DHT22;14792;50.886;6.468;2022-08-11T11:11:56;29.70;65.60
27306;DHT22;14792;50.886;6.468;2022-08-11T11:15:15;29.60;65.50
27306;DHT22;14792;50.886;6.468;2022-08-11T11:18:35;29.40;64.60
27306;DHT22;14792;50.886;6.468;2022-08-11T11:21:36;29.10;64.50
27306;DHT22;14792;50.886;6.468;2022-08-11T11:24:41;29.20;64.70
27306;DHT22;14792;50.886;6.468;2022-08-11T11:28:15;29.20;65.10
27306;DHT22;14792;50.886;6.468;2022-08-11T11:37:48;29.10;64.50
27306;DHT22;14792;50.886;6.468;2022-08-11T11:40:48;29.20;64.40
27306;DHT22;14792;50.886;6.468;2022-08-11T11:43:50;29.30;64.80
27306;DHT22;14792;50.886;6.468;2022-08-11T11:46:51;29.40;65.00
27306;DHT22;14792;50.886;6.468;2022-08-11T11:49:52;29.30;64.00
27306;DHT22;14792;50.886;6.468;2022-08-11T11:52:54;29.40;65.30
27306;DHT22;14792;50.886;6.468;2022-08-11T11:55:55;29.40;65.30
27306;DHT22;14792;50.886;6.468;2022-08-11T11:58:57;29.40;66.00
27306;DHT22;14792;50.886;6.468;2022-08-11T12:02:17;29.60;66.20
27306;DHT22;14792;50.886;6.468;2022-08-11T12:05:18;29.60;65.30
27306;DHT22;14792;50.886;6.468;2022-08-11T12:08:20;29.50;65.00
27306;DHT22;14792;50.886;6.468;2022-08-11T12:11:22;29.30;64.30
27306;DHT22;14792;50.886;6.468;2022-08-11T12:14:41;29.70;65.00
27306;DHT22;14792;50.886;6.468;2022-08-11T12:17:42;29.60;66.00
27306;DHT22;14792;50.886;6.468;2022-08-11T12:20:44;29.80;65.30
27306;DHT22;14792;50.886;6.468;2022-08-11T12:23:45;29.80;67.60
27306;DHT22;14792;50.886;6.468;2022-08-11T12:27:05;29.50;64.80
27306;DHT22;14792;50.886;6.468;2022-08-11T12:30:22;29.80;65.90
27306;DHT22;14792;50.886;6.468;2022-08-11T12:33:23;30.00;64.60
27306;DHT22;14792;50.886;6.468;2022-08-11T12:36:24;29.90;64.60
27306;DHT22;14792;50.886;6.468;2022-08-11T12:39:30;30.40;65.10
27306;DHT22;14792;50.886;6.468;2022-08-11T12:42:45;30.60;64.00
27306;DHT22;14792;50.886;6.468;2022-08-11T12:46:24;30.60;65.50
27306;DHT22;14792;50.886;6.468;2022-08-11T12:49:25;30.50;65.10
27306;DHT22;14792;50.886;6.468;2022-08-11T12:52:44;30.70;64.10
27306;DHT22;14792;50.886;6.468;2022-08-11T12:55:46;30.70;65.80
27306;DHT22;14792;50.886;6.468;2022-08-11T12:59:06;30.70;62.60
27306;DHT22;14792;50.886;6.468;2022-08-11T13:02:25;31.00;64.20
27306;DHT22;14792;50.886;6.468;2022-08-11T13:05:45;31.00;63.40
27306;DHT22;14792;50.886;6.468;2022-08-11T13:08:46;31.10;60.50
27306;DHT22;14792;50.886;6.468;2022-08-11T13:11:47;30.70;60.10
27306;DHT22;14792;50.886;6.468;2022-08-11T13:15:08;30.90;60.30
27306;DHT22;14792;50.886;6.468;2022-08-11T13:18:09;31.10;60.30
27306;DHT22;14792;50.886;6.468;2022-08-11T13:21:10;31.40;58.80
27306;DHT22;14792;50.886;6.468;2022-08-11T13:24:11;31.30;59.20
27306;DHT22;14792;50.886;6.468;2022-08-11T13:27:14;31.80;59.50
27306;DHT22;14792;50.886;6.468;2022-08-11T13:30:15;31.90;58.70
27306;DHT22;14792;50.886;6.468;2022-08-11T13:33:49;32.00;59.80
27306;DHT22;14792;50.886;6.468;2022-08-11T13:36:51;32.00;62.80
27306;DHT22;14792;50.886;6.468;2022-08-11T13:39:52;32.20;59.20
27306;DHT22;14792;50.886;6.468;2022-08-11T13:42:54;32.40;59.20
27306;DHT22;14792;50.886;6.468;2022-08-11T13:45:55;32.40;59.50
27306;DHT22;14792;50.886;6.468;2022-08-11T13:48:57;32.10;57.50
27306;DHT22;14792;50.886;6.468;2022-08-11T13:51:58;32.20;59.50
27306;DHT22;14792;50.886;6.468;2022-08-11T13:55:00;32.30;59.60
27306;DHT22;14792;50.886;6.468;2022-08-11T13:58:01;32.30;69.00
27306;DHT22;14792;50.886;6.468;2022-08-11T14:01:03;32.50;58.80
27306;DHT22;14792;50.886;6.468;2022-08-11T14:04:07;32.70;60.20
27306;DHT22;14792;50.886;6.468;2022-08-11T14:07:07;32.90;60.30
27306;DHT22;14792;50.886;6.468;2022-08-11T14:10:08;33.10;58.30
27306;DHT22;14792;50.886;6.468;2022-08-11T14:13:11;33.00;58.50
27306;DHT22;14792;50.886;6.468;2022-08-11T14:16:33;32.70;58.10
27306;DHT22;14792;50.886;6.468;2022-08-11T14:19:40;32.40;57.40
27306;DHT22;14792;50.886;6.468;2022-08-11T14:22:38;32.80;57.30
27306;DHT22;14792;50.886;6.468;2022-08-11T14:25:40;33.00;57.80
27306;DHT22;14792;50.886;6.468;2022-08-11T14:28:41;32.70;56.90
27306;DHT22;14792;50.886;6.468;2022-08-11T14:31:44;33.00;56.80
27306;DHT22;14792;50.886;6.468;2022-08-11T14:34:44;33.20;56.90
27306;DHT22;14792;50.886;6.468;2022-08-11T14:37:46;33.10;55.70
27306;DHT22;14792;50.886;6.468;2022-08-11T14:40:47;32.50;55.20
27306;DHT22;14792;50.886;6.468;2022-08-11T14:44:07;32.10;55.90
27306;DHT22;14792;50.886;6.468;2022-08-11T14:47:27;32.30;55.60
27306;DHT22;14792;50.886;6.468;2022-08-11T14:50:30;32.60;57.20
27306;DHT22;14792;50.886;6.468;2022-08-11T14:53:30;32.70;56.90
27306;DHT22;14792;50.886;6.468;2022-08-11T14:56:31;32.90;56.70
27306;DHT22;14792;50.886;6.468;2022-08-11T14:59:36;32.90;55.40
27306;DHT22;14792;50.886;6.468;2022-08-11T15:02:38;32.50;55.30
27306;DHT22;14792;50.886;6.468;2022-08-11T15:05:57;32.80;56.00
27306;DHT22;14792;50.886;6.468;2022-08-11T15:08:58;32.40;55.30
27306;DHT22;14792;50.886;6.468;2022-08-11T15:12:00;31.90;56.00
27306;DHT22;14792;50.886;6.468;2022-08-11T15:15:10;31.80;55.50
27306;DHT22;14792;50.886;6.468;2022-08-11T15:18:30;32.00;56.40
27306;DHT22;14792;50.886;6.468;2022-08-11T15:21:31;31.70;55.60
27306;DHT22;14792;50.886;6.468;2022-08-11T15:24:51;31.60;56.00
27306;DHT22;14792;50.886;6.468;2022-08-11T15:27:52;32.20;56.10
27306;DHT22;14792;50.886;6.468;2022-08-11T15:31:12;31.80;55.40
27306;DHT22;14792;50.886;6.468;2022-08-11T15:34:23;31.90;55.80
27306;DHT22;14792;50.886;6.468;2022-08-11T15:37:43;32.30;55.70
27306;DHT22;14792;50.886;6.468;2022-08-11T15:40:43;31.80;55.60
27306;DHT22;14792;50.886;6.468;2022-08-11T15:44:05;31.70;55.70
27306;DHT22;14792;50.886;6.468;2022-08-11T15:47:24;31.80;55.80
27306;DHT22;14792;50.886;6.468;2022-08-11T15:50:26;31.80;56.20
27306;DHT22;14792;50.886;6.468;2022-08-11T15:56:49;31.50;55.50
27306;DHT22;14792;50.886;6.468;2022-08-11T15:59:50;31.60;55.40
27306;DHT22;14792;50.886;6.468;2022-08-11T16:03:10;31.50;56.20
27306;DHT22;14792;50.886;6.468;2022-08-11T16:06:30;31.40;56.00
27306;DHT22;14792;50.886;6.468;2022-08-11T16:09:35;31.30;56.10
27306;DHT22;14792;50.886;6.468;2022-08-11T16:12:42;31.90;57.20
27306;DHT22;14792;50.886;6.468;2022-08-11T16:15:50;32.00;56.00
27306;DHT22;14792;50.886;6.468;2022-08-11T16:19:09;32.10;56.00
27306;DHT22;14792;50.886;6.468;2022-08-11T16:22:11;32.00;56.80
27306;DHT22;14792;50.886;6.468;2022-08-11T16:25:24;31.80;56.10
27306;DHT22;14792;50.886;6.468;2022-08-11T16:28:17;32.00;56.60
27306;DHT22;14792;50.886;6.468;2022-08-11T16:31:21;32.10;60.90
27306;DHT22;14792;50.886;6.468;2022-08-11T16:34:23;32.20;57.20
27306;DHT22;14792;50.886;6.468;2022-08-11T16:37:43;32.10;58.00
27306;DHT22;14792;50.886;6.468;2022-08-11T16:41:07;32.10;55.70
27306;DHT22;14792;50.886;6.468;2022-08-11T16:44:04;32.00;55.40
27306;DHT22;14792;50.886;6.468;2022-08-11T16:47:24;32.00;55.40
27306;DHT22;14792;50.886;6.468;2022-08-11T16:50:26;32.00;55.70
27306;DHT22;14792;50.886;6.468;2022-08-11T16:53:28;31.50;56.00
27306;DHT22;14792;50.886;6.468;2022-08-11T16:56:33;31.70;55.80
27306;DHT22;14792;50.886;6.468;2022-08-11T16:59:32;31.80;55.60
27306;DHT22;14792;50.886;6.468;2022-08-11T17:02:34;31.80;56.30
27306;DHT22;14792;50.886;6.468;2022-08-11T17:05:51;31.80;57.30
27306;DHT22;14792;50.886;6.468;2022-08-11T17:09:02;31.80;55.50
27306;DHT22;14792;50.886;6.468;2022-08-11T17:12:23;31.50;55.30
27306;DHT22;14792;50.886;6.468;2022-08-11T17:15:44;31.50;55.90
27306;DHT22;14792;50.886;6.468;2022-08-11T17:22:11;31.30;55.30
27306;DHT22;14792;50.886;6.468;2022-08-11T17:25:30;31.10;55.80
27306;DHT22;14792;50.886;6.468;2022-08-11T17:28:32;31.00;55.40
27306;DHT22;14792;50.886;6.468;2022-08-11T17:31:33;31.10;55.90
27306;DHT22;14792;50.886;6.468;2022-08-11T17:34:54;31.10;56.20
27306;DHT22;14792;50.886;6.468;2022-08-11T17:38:16;31.10;55.90
27306;DHT22;14792;50.886;6.468;2022-08-11T17:41:16;30.90;55.70
27306;DHT22;14792;50.886;6.468;2022-08-11T17:44:36;30.70;56.10
27306;DHT22;14792;50.886;6.468;2022-08-11T17:47:56;30.70;56.30
27306;DHT22;14792;50.886;6.468;2022-08-11T17:51:18;30.70;56.90
27306;DHT22;14792;50.886;6.468;2022-08-11T17:54:17;30.60;56.50
27306;DHT22;14792;50.886;6.468;2022-08-11T17:57:36;30.50;56.90
27306;DHT22;14792;50.886;6.468;2022-08-11T18:00:55;30.40;57.20
27306;DHT22;14792;50.886;6.468;2022-08-11T18:03:57;30.30;57.20
27306;DHT22;14792;50.886;6.468;2022-08-11T18:06:59;30.10;57.60
27306;DHT22;14792;50.886;6.468;2022-08-11T18:10:02;30.10;58.00
27306;DHT22;14792;50.886;6.468;2022-08-11T18:13:24;30.10;59.20
27306;DHT22;14792;50.886;6.468;2022-08-11T18:16:43;29.90;60.30
27306;DHT22;14792;50.886;6.468;2022-08-11T18:20:03;29.70;60.90
27306;DHT22;14792;50.886;6.468;2022-08-11T18:23:22;29.60;61.10
27306;DHT22;14792;50.886;6.468;2022-08-11T18:26:42;29.40;61.70
27306;DHT22;14792;50.886;6.468;2022-08-11T18:30:02;29.30;61.50
27306;DHT22;14792;50.886;6.468;2022-08-11T18:33:21;29.20;62.00
27306;DHT22;14792;50.886;6.468;2022-08-11T18:36:48;29.00;62.20
27306;DHT22;14792;50.886;6.468;2022-08-11T18:40:13;28.90;63.20
27306;DHT22;14792;50.886;6.468;2022-08-11T18:43:30;28.80;63.90
27306;DHT22;14792;50.886;6.468;2022-08-11T18:46:50;28.60;63.30
27306;DHT22;14792;50.886;6.468;2022-08-11T18:50:10;28.50;63.50
27306;DHT22;14792;50.886;6.468;2022-08-11T18:53:29;28.40;64.60
27306;DHT22;14792;50.886;6.468;2022-08-11T18:56:48;28.20;64.10
27306;DHT22;14792;50.886;6.468;2022-08-11T19:00:08;28.10;65.10
27306;DHT22;14792;50.886;6.468;2022-08-11T19:03:27;27.90;65.40
27306;DHT22;14792;50.886;6.468;2022-08-11T19:06:47;27.80;65.00
27306;DHT22;14792;50.886;6.468;2022-08-11T19:10:06;27.70;65.40
27306;DHT22;14792;50.886;6.468;2022-08-11T19:13:26;27.60;65.10
27306;DHT22;14792;50.886;6.468;2022-08-11T19:16:45;27.50;66.60
27306;DHT22;14792;50.886;6.468;2022-08-11T19:20:09;27.20;66.90
27306;DHT22;14792;50.886;6.468;2022-08-11T19:23:29;27.20;66.00
27306;DHT22;14792;50.886;6.468;2022-08-11T19:26:44;27.00;66.60
27306;DHT22;14792;50.886;6.468;2022-08-11T19:30:04;26.80;67.10
27306;DHT22;14792;50.886;6.468;2022-08-11T19:33:23;26.60;67.90
27306;DHT22;14792;50.886;6.468;2022-08-11T19:36:43;26.50;68.00
27306;DHT22;14792;50.886;6.468;2022-08-11T19:40:06;26.40;68.50
27306;DHT22;14792;50.886;6.468;2022-08-11T19:43:25;26.20;69.20
27306;DHT22;14792;50.886;6.468;2022-08-11T19:46:46;26.30;68.60
27306;DHT22;14792;50.886;6.468;2022-08-11T19:50:05;26.40;68.30
27306;DHT22;14792;50.886;6.468;2022-08-11T19:53:25;26.50;68.40
27306;DHT22;14792;50.886;6.468;2022-08-11T19:56:45;26.50;69.50
27306;DHT22;14792;50.886;6.468;2022-08-11T20:00:14;26.40;69.20
27306;DHT22;14792;50.886;6.468;2022-08-11T20:03:30;26.40;68.60
27306;DHT22;14792;50.886;6.468;2022-08-11T20:06:50;26.50;68.60
27306;DHT22;14792;50.886;6.468;2022-08-11T20:10:09;26.50;68.50
27306;DHT22;14792;50.886;6.468;2022-08-11T20:13:28;26.40;68.90
27306;DHT22;14792;50.886;6.468;2022-08-11T20:16:47;26.40;69.10
27306;DHT22;14792;50.886;6.468;2022-08-11T20:20:07;26.40;69.00
27306;DHT22;14792;50.886;6.468;2022-08-11T20:23:27;26.40;68.80
27306;DHT22;14792;50.886;6.468;2022-08-11T20:26:46;26.40;68.70
27306;DHT22;14792;50.886;6.468;2022-08-11T20:30:06;26.40;68.90
27306;DHT22;14792;50.886;6.468;2022-08-11T20:33:26;26.30;69.20
27306;DHT22;14792;50.886;6.468;2022-08-11T20:36:45;26.20;69.40
27306;DHT22;14792;50.886;6.468;2022-08-11T20:40:05;26.20;69.40
27306;DHT22;14792;50.886;6.468;2022-08-11T20:43:25;26.10;69.60
27306;DHT22;14792;50.886;6.468;2022-08-11T20:46:44;26.10;69.70
27306;DHT22;14792;50.886;6.468;2022-08-11T20:50:04;26.00;70.10
27306;DHT22;14792;50.886;6.468;2022-08-11T20:53:23;25.90;70.30
27306;DHT22;14792;50.886;6.468;2022-08-11T20:56:43;25.80;70.90
27306;DHT22;14792;50.886;6.468;2022-08-11T21:00:03;25.70;70.80
27306;DHT22;14792;50.886;6.468;2022-08-11T21:03:22;25.70;70.90
27306;DHT22;14792;50.886;6.468;2022-08-11T21:06:42;25.70;70.90
27306;DHT22;14792;50.886;6.468;2022-08-11T21:10:02;25.70;70.90
27306;DHT22;14792;50.886;6.468;2022-08-11T21:13:27;25.70;71.30
27306;DHT22;14792;50.886;6.468;2022-08-11T21:16:44;25.60;71.20
27306;DHT22;14792;50.886;6.468;2022-08-11T21:20:03;25.60;71.40
27306;DHT22;14792;50.886;6.468;2022-08-11T21:23:23;25.60;71.40
27306;DHT22;14792;50.886;6.468;2022-08-11T21:26:43;25.50;71.60
27306;DHT22;14792;50.886;6.468;2022-08-11T21:30:02;25.40;71.70
27306;DHT22;14792;50.886;6.468;2022-08-11T21:33:21;25.40;71.70
27306;DHT22;14792;50.886;6.468;2022-08-11T21:36:41;25.30;71.70
27306;DHT22;14792;50.886;6.468;2022-08-11T21:40:01;25.60;71.10
27306;DHT22;14792;50.886;6.468;2022-08-11T21:43:20;25.60;70.90
27306;DHT22;14792;50.886;6.468;2022-08-11T21:46:40;25.50;71.00
27306;DHT22;14792;50.886;6.468;2022-08-11T21:49:59;25.50;71.20
27306;DHT22;14792;50.886;6.468;2022-08-11T21:53:19;25.40;71.40
27306;DHT22;14792;50.886;6.468;2022-08-11T21:56:38;25.30;71.90
27306;DHT22;14792;50.886;6.468;2022-08-11T21:59:58;25.30;71.80
27306;DHT22;14792;50.886;6.468;2022-08-11T22:03:17;25.30;71.70
27306;DHT22;14792;50.886;6.468;2022-08-11T22:06:36;25.20;72.10
27306;DHT22;14792;50.886;6.468;2022-08-11T22:09:56;25.20;72.20
27306;DHT22;14792;50.886;6.468;2022-08-11T22:13:16;25.10;72.30
27306;DHT22;14792;50.886;6.468;2022-08-11T22:16:35;25.00;72.50
27306;DHT22;14792;50.886;6.468;2022-08-11T22:19:55;25.00;72.80
27306;DHT22;14792;50.886;6.468;2022-08-11T22:23:15;24.90;73.10
27306;DHT22;14792;50.886;6.468;2022-08-11T22:26:34;24.80;73.40
27306;DHT22;14792;50.886;6.468;2022-08-11T22:29:53;24.60;73.70
27306;DHT22;14792;50.886;6.468;2022-08-11T22:33:13;24.60;73.70
27306;DHT22;14792;50.886;6.468;2022-08-11T22:36:32;24.60;73.80
27306;DHT22;14792;50.886;6.468;2022-08-11T22:39:52;24.50;74.20
27306;DHT22;14792;50.886;6.468;2022-08-11T22:43:12;24.40;74.50
27306;DHT22;14792;50.886;6.468;2022-08-11T22:46:32;24.30;74.60
27306;DHT22;14792;50.886;6.468;2022-08-11T22:49:51;24.30;74.80
27306;DHT22;14792;50.886;6.468;2022-08-11T22:53:10;24.40;75.00
27306;DHT22;14792;50.886;6.468;2022-08-11T22:56:30;24.40;74.50
27306;DHT22;14792;50.886;6.468;2022-08-11T22:59:50;24.30;74.80
27306;DHT22;14792;50.886;6.468;2022-08-11T23:03:10;24.10;75.80
27306;DHT22;14792;50.886;6.468;2022-08-11T23:06:28;23.90;76.40
27306;DHT22;14792;50.886;6.468;2022-08-11T23:09:48;23.80;76.70
27306;DHT22;14792;50.886;6.468;2022-08-11T23:13:07;23.60;77.40
27306;DHT22;14792;50.886;6.468;2022-08-11T23:16:27;23.50;77.80